PWSweather.com
Personal Weather Stations
Station Observations
IHTIMAN1
Neighbourhood 1, IhtimanBG 2050

Neighbourhood 1IhtimanBG 2050

Lat: 42.436852, Lon: 23.817921

Elevation: 2066

Station Type: Oregon Scientific WMR968

http://ihtiman-meteo.com

High Low Average
Temperature 67.2°F19.6°C 38.8°F3.8°C 55.2°F12.9°C
Dew Point 42.9°F6.1°C 34.8°F1.6°C 37.5°F3.1°C
Winds 10.4 mph 16.7 kmh Calm Calm 6.0 mph W9.7 kmh W
Wind Gusts 16.1 mph25.9 kmh -- 9.0 mph14.5 kmh
Humidity 93% 34% 55%
Pressure 29.88 in1011.9 mb 29.82 in1009.8 mb -
Precipitation 0.00 in0.0 mm - -
Hour Temp Dew Point Humidity Winds Wind Gusts Pressure Precip Precip Rate Daily Precip Total
12:00 AM 45.8°F7.7°C 39.0°F3.9°C 77% 6.9 mph NNW11.1 kmh NNW 10.4 mph16.7 kmh 29.88 in1011.9 mb - 0.00 in0.0 mm 0.00 in0.0 mm
12:10 AM 45.5°F7.5°C 39.0°F3.9°C 78% 6.9 mph N11.1 kmh N 8.1 mph13.0 kmh 29.88 in1011.9 mb - 0.00 in0.0 mm 0.00 in0.0 mm
12:20 AM 45.3°F7.4°C 39.2°F4.0°C 79% 4.6 mph N7.4 kmh N 8.1 mph13.0 kmh 29.88 in1011.9 mb - 0.00 in0.0 mm 0.00 in0.0 mm
12:30 AM 45.1°F7.3°C 39.3°F4.1°C 80% 3.5 mph N5.6 kmh N 4.6 mph7.4 kmh 29.88 in1011.9 mb - 0.00 in0.0 mm 0.00 in0.0 mm
12:40 AM 44.8°F7.1°C 39.3°F4.1°C 81% 4.6 mph NNW7.4 kmh NNW 5.8 mph9.3 kmh 29.88 in1011.9 mb - 0.00 in0.0 mm 0.00 in0.0 mm
12:50 AM 44.4°F6.9°C 39.3°F4.1°C 82% 3.5 mph NNW5.6 kmh NNW 5.8 mph9.3 kmh 29.88 in1011.9 mb - 0.00 in0.0 mm 0.00 in0.0 mm
01:10 AM 43.9°F6.6°C 39.4°F4.1°C 84% 3.5 mph SE5.6 kmh SE 4.6 mph7.4 kmh 29.88 in1011.9 mb - 0.00 in0.0 mm 0.00 in0.0 mm
01:20 AM 43.2°F6.2°C 38.7°F3.7°C 84% 2.3 mph SSE3.7 kmh SSE 3.5 mph5.6 kmh 29.88 in1011.9 mb - 0.00 in0.0 mm 0.00 in0.0 mm
01:30 AM 42.6°F5.9°C 38.1°F3.4°C 84% 3.5 mph SSW5.6 kmh SSW 4.6 mph7.4 kmh 29.88 in1011.9 mb - 0.00 in0.0 mm 0.00 in0.0 mm
01:40 AM 41.8°F5.4°C 37.3°F2.9°C 84% 2.3 mph SW3.7 kmh SW 3.5 mph5.6 kmh 29.88 in1011.9 mb - 0.00 in0.0 mm 0.00 in0.0 mm
01:50 AM 41.0°F5.0°C 36.5°F2.5°C 84% Calm Calm -- 29.88 in1011.9 mb - 0.00 in0.0 mm 0.00 in0.0 mm
02:00 AM 40.6°F4.8°C 36.5°F2.5°C 85% Calm Calm -- 29.86 in1011.2 mb - 0.00 in0.0 mm 0.00 in0.0 mm
02:10 AM 40.6°F4.8°C 36.8°F2.7°C 86% Calm Calm -- 29.86 in1011.2 mb - 0.00 in0.0 mm 0.00 in0.0 mm
02:20 AM 40.6°F4.8°C 37.1°F2.8°C 87% Calm Calm -- 29.88 in1011.9 mb - 0.00 in0.0 mm 0.00 in0.0 mm
02:30 AM 40.5°F4.7°C 36.9°F2.7°C 87% Calm Calm -- 29.86 in1011.2 mb - 0.00 in0.0 mm 0.00 in0.0 mm
02:40 AM 40.4°F4.7°C 37.1°F2.8°C 88% Calm Calm -- 29.86 in1011.2 mb - 0.00 in0.0 mm 0.00 in0.0 mm
02:50 AM 40.3°F4.6°C 37.0°F2.8°C 88% 2.3 mph WNW3.7 kmh WNW 2.3 mph3.7 kmh 29.88 in1011.9 mb - 0.00 in0.0 mm 0.00 in0.0 mm
03:00 AM 40.1°F4.5°C 37.1°F2.8°C 89% Calm Calm -- 29.86 in1011.2 mb - 0.00 in0.0 mm 0.00 in0.0 mm
03:10 AM 39.9°F4.4°C 37.2°F2.9°C 90% Calm Calm -- 29.86 in1011.2 mb - 0.00 in0.0 mm 0.00 in0.0 mm
03:20 AM 39.6°F4.2°C 36.9°F2.7°C 90% Calm Calm -- 29.86 in1011.2 mb - 0.00 in0.0 mm 0.00 in0.0 mm
03:30 AM 39.2°F4.0°C 36.5°F2.5°C 90% Calm Calm -- 29.86 in1011.2 mb - 0.00 in0.0 mm 0.00 in0.0 mm
03:40 AM 38.8°F3.8°C 36.4°F2.4°C 91% Calm Calm -- 29.86 in1011.2 mb - 0.00 in0.0 mm 0.00 in0.0 mm
03:50 AM 38.8°F3.8°C 36.4°F2.4°C 91% Calm Calm 3.5 mph5.6 kmh 29.86 in1011.2 mb - 0.00 in0.0 mm 0.00 in0.0 mm
04:00 AM 38.8°F3.8°C 36.7°F2.6°C 92% 2.3 mph S3.7 kmh S 3.5 mph5.6 kmh 29.86 in1011.2 mb - 0.00 in0.0 mm 0.00 in0.0 mm
04:10 AM 39.1°F3.9°C 37.2°F2.9°C 93% 3.5 mph NNW5.6 kmh NNW 5.8 mph9.3 kmh 29.86 in1011.2 mb - 0.00 in0.0 mm 0.00 in0.0 mm
04:20 AM 41.0°F5.0°C 39.1°F3.9°C 93% 1.2 mph SE1.9 kmh SE -- 29.86 in1011.2 mb - 0.00 in0.0 mm 0.00 in0.0 mm
04:30 AM 41.2°F5.1°C 39.0°F3.9°C 92% Calm Calm -- 29.86 in1011.2 mb - 0.00 in0.0 mm 0.00 in0.0 mm
04:40 AM 41.1°F5.1°C 38.4°F3.6°C 90% 3.5 mph WSW5.6 kmh WSW 5.8 mph9.3 kmh 29.86 in1011.2 mb - 0.00 in0.0 mm 0.00 in0.0 mm
04:50 AM 41.5°F5.3°C 38.3°F3.5°C 88% 3.5 mph E5.6 kmh E 3.5 mph5.6 kmh 29.86 in1011.2 mb - 0.00 in0.0 mm 0.00 in0.0 mm
05:00 AM 41.7°F5.4°C 37.2°F2.9°C 84% 2.3 mph ESE3.7 kmh ESE 3.5 mph5.6 kmh 29.86 in1011.2 mb - 0.00 in0.0 mm 0.00 in0.0 mm
05:10 AM 42.6°F5.9°C 36.9°F2.7°C 80% 2.3 mph NE3.7 kmh NE 3.5 mph5.6 kmh 29.86 in1011.2 mb - 0.00 in0.0 mm 0.00 in0.0 mm
05:20 AM 43.2°F6.2°C 36.1°F2.3°C 76% 1.2 mph N1.9 kmh N 4.6 mph7.4 kmh 29.86 in1011.2 mb - 0.00 in0.0 mm 0.00 in0.0 mm
05:30 AM 43.2°F6.2°C 35.4°F1.9°C 74% 3.5 mph N5.6 kmh N 5.8 mph9.3 kmh 29.86 in1011.2 mb - 0.00 in0.0 mm 0.00 in0.0 mm
05:40 AM 44.0°F6.7°C 35.6°F2.0°C 72% 4.6 mph N7.4 kmh N 9.2 mph14.8 kmh 29.86 in1011.2 mb - 0.00 in0.0 mm 0.00 in0.0 mm
05:50 AM 44.7°F7.1°C 35.5°F1.9°C 70% 8.1 mph NNW13.0 kmh NNW 12.7 mph20.4 kmh 29.86 in1011.2 mb - 0.00 in0.0 mm 0.00 in0.0 mm
06:00 AM 45.8°F7.7°C 35.8°F2.1°C 68% 6.9 mph NW11.1 kmh NW 8.1 mph13.0 kmh 29.86 in1011.2 mb - 0.00 in0.0 mm 0.00 in0.0 mm
06:10 AM 46.2°F7.9°C 35.5°F1.9°C 66% 5.8 mph N9.3 kmh N 6.9 mph11.1 kmh 29.86 in1011.2 mb - 0.00 in0.0 mm 0.00 in0.0 mm
06:20 AM 46.4°F8.0°C 34.9°F1.6°C 64% 4.6 mph N7.4 kmh N 5.8 mph9.3 kmh 29.86 in1011.2 mb - 0.00 in0.0 mm 0.00 in0.0 mm
06:30 AM 46.6°F8.1°C 35.4°F1.9°C 65% 2.3 mph N3.7 kmh N 3.5 mph5.6 kmh 29.86 in1011.2 mb - 0.00 in0.0 mm 0.00 in0.0 mm
06:40 AM 47.2°F8.4°C 35.7°F2.1°C 64% 5.8 mph NNE9.3 kmh NNE 9.2 mph14.8 kmh 29.86 in1011.2 mb - 0.00 in0.0 mm 0.00 in0.0 mm
06:50 AM 48.3°F9.1°C 36.3°F2.4°C 63% 5.8 mph N9.3 kmh N 9.2 mph14.8 kmh 29.86 in1011.2 mb - 0.00 in0.0 mm 0.00 in0.0 mm
07:00 AM 48.7°F9.3°C 35.9°F2.2°C 61% 4.6 mph NNW7.4 kmh NNW 9.2 mph14.8 kmh 29.86 in1011.2 mb - 0.00 in0.0 mm 0.00 in0.0 mm
07:10 AM 48.7°F9.3°C 35.9°F2.2°C 61% 4.6 mph N7.4 kmh N 5.8 mph9.3 kmh 29.86 in1011.2 mb - 0.00 in0.0 mm 0.00 in0.0 mm
07:20 AM 48.9°F9.4°C 36.1°F2.3°C 61% 4.6 mph NW7.4 kmh NW 5.8 mph9.3 kmh 29.86 in1011.2 mb - 0.00 in0.0 mm 0.00 in0.0 mm
07:30 AM 48.9°F9.4°C 36.5°F2.5°C 62% 3.5 mph NW5.6 kmh NW 5.8 mph9.3 kmh 29.82 in1009.8 mb - 0.00 in0.0 mm 0.00 in0.0 mm
07:40 AM 51.5°F10.8°C 38.1°F3.4°C 60% 3.5 mph W5.6 kmh W 5.8 mph9.3 kmh 29.82 in1009.8 mb - 0.00 in0.0 mm 0.00 in0.0 mm
07:50 AM 52.7°F11.5°C 37.4°F3.0°C 56% 5.8 mph WNW9.3 kmh WNW 8.1 mph13.0 kmh 29.86 in1011.2 mb - 0.00 in0.0 mm 0.00 in0.0 mm
08:00 AM 53.9°F12.2°C 37.6°F3.1°C 54% 4.6 mph NW7.4 kmh NW 10.4 mph16.7 kmh 29.86 in1011.2 mb - 0.00 in0.0 mm 0.00 in0.0 mm
08:10 AM 54.5°F12.5°C 36.7°F2.6°C 51% 8.1 mph NW13.0 kmh NW 12.7 mph20.4 kmh 29.86 in1011.2 mb - 0.00 in0.0 mm 0.00 in0.0 mm
08:20 AM 54.6°F12.6°C 36.3°F2.4°C 50% 6.9 mph NW11.1 kmh NW 11.5 mph18.5 kmh 29.86 in1011.2 mb - 0.00 in0.0 mm 0.00 in0.0 mm
08:30 AM 55.0°F12.8°C 36.7°F2.6°C 50% 9.2 mph W14.8 kmh W 15.0 mph24.1 kmh 29.86 in1011.2 mb - 0.00 in0.0 mm 0.00 in0.0 mm
08:40 AM 55.9°F13.3°C 36.5°F2.5°C 48% 5.8 mph WSW9.3 kmh WSW 10.4 mph16.7 kmh 29.86 in1011.2 mb - 0.00 in0.0 mm 0.00 in0.0 mm
08:50 AM 56.8°F13.8°C 36.7°F2.6°C 47% 9.2 mph NW14.8 kmh NW 11.5 mph18.5 kmh 29.86 in1011.2 mb - 0.00 in0.0 mm 0.00 in0.0 mm
09:00 AM 58.2°F14.6°C 37.5°F3.1°C 46% 8.1 mph WNW13.0 kmh WNW 12.7 mph20.4 kmh 29.86 in1011.2 mb - 0.00 in0.0 mm 0.00 in0.0 mm
09:10 AM 58.9°F14.9°C 37.6°F3.1°C 45% 6.9 mph WSW11.1 kmh WSW 12.7 mph20.4 kmh 29.86 in1011.2 mb - 0.00 in0.0 mm 0.00 in0.0 mm
09:20 AM 59.4°F15.2°C 37.4°F3.0°C 44% 6.9 mph W11.1 kmh W 10.4 mph16.7 kmh 29.86 in1011.2 mb - 0.00 in0.0 mm 0.00 in0.0 mm
09:30 AM 59.8°F15.4°C 37.3°F2.9°C 43% 6.9 mph NW11.1 kmh NW 12.7 mph20.4 kmh 29.86 in1011.2 mb - 0.00 in0.0 mm 0.00 in0.0 mm
09:40 AM 59.8°F15.4°C 36.7°F2.6°C 42% 8.1 mph WNW13.0 kmh WNW 12.7 mph20.4 kmh 29.86 in1011.2 mb - 0.00 in0.0 mm 0.00 in0.0 mm
09:50 AM 61.3°F16.3°C 37.4°F3.0°C 41% 5.8 mph W9.3 kmh W 8.1 mph13.0 kmh 29.86 in1011.2 mb - 0.00 in0.0 mm 0.00 in0.0 mm
10:00 AM 61.9°F16.6°C 37.3°F2.9°C 40% 6.9 mph WSW11.1 kmh WSW 10.4 mph16.7 kmh 29.86 in1011.2 mb - 0.00 in0.0 mm 0.00 in0.0 mm
10:10 AM 61.7°F16.5°C 35.8°F2.1°C 38% 6.9 mph W11.1 kmh W 10.4 mph16.7 kmh 29.86 in1011.2 mb - 0.00 in0.0 mm 0.00 in0.0 mm
10:20 AM 62.2°F16.8°C 36.3°F2.4°C 38% 6.9 mph NW11.1 kmh NW 12.7 mph20.4 kmh 29.86 in1011.2 mb - 0.00 in0.0 mm 0.00 in0.0 mm
10:30 AM 62.2°F16.8°C 36.3°F2.4°C 38% 8.1 mph WSW13.0 kmh WSW 12.7 mph20.4 kmh 29.86 in1011.2 mb - 0.00 in0.0 mm 0.00 in0.0 mm
10:40 AM 63.1°F17.3°C 36.4°F2.4°C 37% 9.2 mph NW14.8 kmh NW 15.0 mph24.1 kmh 29.86 in1011.2 mb - 0.00 in0.0 mm 0.00 in0.0 mm
10:50 AM 63.3°F17.4°C 36.6°F2.6°C 37% 4.6 mph WSW7.4 kmh WSW 8.1 mph13.0 kmh 29.86 in1011.2 mb - 0.00 in0.0 mm 0.00 in0.0 mm
11:00 AM 63.6°F17.6°C 36.1°F2.3°C 36% 9.2 mph NW14.8 kmh NW 12.7 mph20.4 kmh 29.86 in1011.2 mb - 0.00 in0.0 mm 0.00 in0.0 mm
11:10 AM 63.8°F17.7°C 36.3°F2.4°C 36% 6.9 mph WNW11.1 kmh WNW 12.7 mph20.4 kmh 29.86 in1011.2 mb - 0.00 in0.0 mm 0.00 in0.0 mm
11:20 AM 64.2°F17.9°C 36.6°F2.6°C 36% 9.2 mph NW14.8 kmh NW 12.7 mph20.4 kmh 29.86 in1011.2 mb - 0.00 in0.0 mm 0.00 in0.0 mm
11:30 AM 65.1°F18.4°C 37.5°F3.1°C 36% 8.1 mph NW13.0 kmh NW 12.7 mph20.4 kmh 29.86 in1011.2 mb - 0.00 in0.0 mm 0.00 in0.0 mm
11:40 AM 64.2°F17.9°C 35.9°F2.2°C 35% 9.2 mph WNW14.8 kmh WNW 12.7 mph20.4 kmh 29.86 in1011.2 mb - 0.00 in0.0 mm 0.00 in0.0 mm
11:50 AM 64.4°F18.0°C 36.2°F2.3°C 35% 10.4 mph NW16.7 kmh NW 10.4 mph16.7 kmh 29.86 in1011.2 mb - 0.00 in0.0 mm 0.00 in0.0 mm
12:00 PM 65.4°F18.6°C 37.0°F2.8°C 35% 6.9 mph WSW11.1 kmh WSW 10.4 mph16.7 kmh 29.86 in1011.2 mb - 0.00 in0.0 mm 0.00 in0.0 mm
12:10 PM 64.7°F18.2°C 36.4°F2.4°C 35% 6.9 mph WSW11.1 kmh WSW 13.8 mph22.2 kmh 29.86 in1011.2 mb - 0.00 in0.0 mm 0.00 in0.0 mm
12:20 PM 66.0°F18.9°C 37.5°F3.1°C 35% 6.9 mph WNW11.1 kmh WNW 8.1 mph13.0 kmh 29.86 in1011.2 mb - 0.00 in0.0 mm 0.00 in0.0 mm
12:30 PM 66.5°F19.2°C 37.2°F2.9°C 34% 8.1 mph N13.0 kmh N 9.2 mph14.8 kmh 29.86 in1011.2 mb - 0.00 in0.0 mm 0.00 in0.0 mm
12:40 PM 65.7°F18.7°C 36.6°F2.6°C 34% 6.9 mph NW11.1 kmh NW 8.1 mph13.0 kmh 29.86 in1011.2 mb - 0.00 in0.0 mm 0.00 in0.0 mm
12:50 PM 67.2°F19.6°C 37.9°F3.3°C 34% 9.2 mph N14.8 kmh N 16.1 mph25.9 kmh 29.86 in1011.2 mb - 0.00 in0.0 mm 0.00 in0.0 mm
01:00 PM 65.2°F18.4°C 36.1°F2.3°C 34% 8.1 mph WNW13.0 kmh WNW 11.5 mph18.5 kmh 29.86 in1011.2 mb - 0.00 in0.0 mm 0.00 in0.0 mm
01:10 PM 65.3°F18.5°C 36.2°F2.3°C 34% 8.1 mph NW13.0 kmh NW 11.5 mph18.5 kmh 29.86 in1011.2 mb - 0.00 in0.0 mm 0.00 in0.0 mm
01:20 PM 63.7°F17.6°C 35.5°F1.9°C 35% 6.9 mph NW11.1 kmh NW 10.4 mph16.7 kmh 29.86 in1011.2 mb - 0.00 in0.0 mm 0.00 in0.0 mm
01:30 PM 64.5°F18.1°C 35.5°F1.9°C 34% 5.8 mph W9.3 kmh W 9.2 mph14.8 kmh 29.86 in1011.2 mb - 0.00 in0.0 mm 0.00 in0.0 mm
01:40 PM 66.6°F19.2°C 37.3°F2.9°C 34% 8.1 mph NNW13.0 kmh NNW 15.0 mph24.1 kmh 29.86 in1011.2 mb - 0.00 in0.0 mm 0.00 in0.0 mm
01:50 PM 65.9°F18.8°C 36.7°F2.6°C 34% 6.9 mph NNW11.1 kmh NNW 11.5 mph18.5 kmh 29.86 in1011.2 mb - 0.00 in0.0 mm 0.00 in0.0 mm
02:00 PM 66.5°F19.2°C 37.2°F2.9°C 34% 6.9 mph NNE11.1 kmh NNE 12.7 mph20.4 kmh 29.86 in1011.2 mb - 0.00 in0.0 mm 0.00 in0.0 mm
02:10 PM 65.6°F18.7°C 36.5°F2.5°C 34% 8.1 mph N13.0 kmh N 12.7 mph20.4 kmh 29.86 in1011.2 mb - 0.00 in0.0 mm 0.00 in0.0 mm
02:20 PM 65.4°F18.6°C 37.1°F2.8°C 35% 8.1 mph NNW13.0 kmh NNW 12.7 mph20.4 kmh 29.86 in1011.2 mb - 0.00 in0.0 mm 0.00 in0.0 mm
02:30 PM 65.5°F18.6°C 37.1°F2.8°C 35% 5.8 mph NNW9.3 kmh NNW 11.5 mph18.5 kmh 29.82 in1009.8 mb - 0.00 in0.0 mm 0.00 in0.0 mm
02:40 PM 67.0°F19.4°C 38.4°F3.6°C 35% 9.2 mph N14.8 kmh N 12.7 mph20.4 kmh 29.82 in1009.8 mb - 0.00 in0.0 mm 0.00 in0.0 mm
02:50 PM 64.1°F17.8°C 35.9°F2.2°C 35% 8.1 mph NW13.0 kmh NW 12.7 mph20.4 kmh 29.82 in1009.8 mb - 0.00 in0.0 mm 0.00 in0.0 mm
03:00 PM 64.3°F17.9°C 36.0°F2.2°C 35% 8.1 mph NW13.0 kmh NW 13.8 mph22.2 kmh 29.82 in1009.8 mb - 0.00 in0.0 mm 0.00 in0.0 mm
03:10 PM 66.6°F19.2°C 38.0°F3.3°C 35% 8.1 mph NW13.0 kmh NW 12.7 mph20.4 kmh 29.82 in1009.8 mb - 0.00 in0.0 mm 0.00 in0.0 mm
03:20 PM 63.7°F17.6°C 35.5°F1.9°C 35% 8.1 mph N13.0 kmh N 11.5 mph18.5 kmh 29.82 in1009.8 mb - 0.00 in0.0 mm 0.00 in0.0 mm
03:30 PM 64.5°F18.1°C 36.2°F2.3°C 35% 8.1 mph NNW13.0 kmh NNW 12.7 mph20.4 kmh 29.82 in1009.8 mb - 0.00 in0.0 mm 0.00 in0.0 mm
03:40 PM 63.9°F17.7°C 35.7°F2.1°C 35% 6.9 mph NW11.1 kmh NW 9.2 mph14.8 kmh 29.82 in1009.8 mb - 0.00 in0.0 mm 0.00 in0.0 mm
03:50 PM 64.4°F18.0°C 36.8°F2.7°C 36% 5.8 mph NNW9.3 kmh NNW 8.1 mph13.0 kmh 29.82 in1009.8 mb - 0.00 in0.0 mm 0.00 in0.0 mm
04:00 PM 63.4°F17.4°C 35.9°F2.2°C 36% 8.1 mph N13.0 kmh N 8.1 mph13.0 kmh 29.82 in1009.8 mb - 0.00 in0.0 mm 0.00 in0.0 mm
04:10 PM 63.3°F17.4°C 35.9°F2.2°C 36% 8.1 mph NNW13.0 kmh NNW 13.8 mph22.2 kmh 29.82 in1009.8 mb - 0.00 in0.0 mm 0.00 in0.0 mm
04:20 PM 62.5°F16.9°C 35.2°F1.8°C 36% 6.9 mph N11.1 kmh N 10.4 mph16.7 kmh 29.82 in1009.8 mb - 0.00 in0.0 mm 0.00 in0.0 mm
04:30 PM 62.9°F17.2°C 35.5°F1.9°C 36% 6.9 mph N11.1 kmh N 9.2 mph14.8 kmh 29.82 in1009.8 mb - 0.00 in0.0 mm 0.00 in0.0 mm
04:40 PM 62.8°F17.1°C 35.4°F1.9°C 36% 8.1 mph N13.0 kmh N 12.7 mph20.4 kmh 29.82 in1009.8 mb - 0.00 in0.0 mm 0.00 in0.0 mm
04:50 PM 64.2°F17.9°C 36.7°F2.6°C 36% 5.8 mph N9.3 kmh N 12.7 mph20.4 kmh 29.82 in1009.8 mb - 0.00 in0.0 mm 0.00 in0.0 mm
05:00 PM 64.7°F18.2°C 36.4°F2.4°C 35% 9.2 mph N14.8 kmh N 16.1 mph25.9 kmh 29.82 in1009.8 mb - 0.00 in0.0 mm 0.00 in0.0 mm
05:10 PM 63.2°F17.3°C 35.8°F2.1°C 36% 6.9 mph N11.1 kmh N 8.1 mph13.0 kmh 29.82 in1009.8 mb - 0.00 in0.0 mm 0.00 in0.0 mm
05:20 PM 62.2°F16.8°C 35.6°F2.0°C 37% 8.1 mph N13.0 kmh N 12.7 mph20.4 kmh 29.82 in1009.8 mb - 0.00 in0.0 mm 0.00 in0.0 mm
05:30 PM 61.9°F16.6°C 35.3°F1.8°C 37% 8.1 mph N13.0 kmh N 15.0 mph24.1 kmh 29.82 in1009.8 mb - 0.00 in0.0 mm 0.00 in0.0 mm
05:40 PM 61.3°F16.3°C 34.8°F1.6°C 37% 9.2 mph NNW14.8 kmh NNW 9.2 mph14.8 kmh 29.82 in1009.8 mb - 0.00 in0.0 mm 0.00 in0.0 mm
05:50 PM 61.0°F16.1°C 35.8°F2.1°C 39% 8.1 mph NE13.0 kmh NE 10.4 mph16.7 kmh 29.82 in1009.8 mb - 0.00 in0.0 mm 0.00 in0.0 mm
06:00 PM 60.5°F15.8°C 36.1°F2.3°C 40% 8.1 mph NNW13.0 kmh NNW 15.0 mph24.1 kmh 29.82 in1009.8 mb - 0.00 in0.0 mm 0.00 in0.0 mm
06:10 PM 59.9°F15.5°C 35.5°F1.9°C 40% 9.2 mph NNW14.8 kmh NNW 15.0 mph24.1 kmh 29.82 in1009.8 mb - 0.00 in0.0 mm 0.00 in0.0 mm
06:20 PM 59.5°F15.3°C 35.8°F2.1°C 41% 9.2 mph N14.8 kmh N 12.7 mph20.4 kmh 29.82 in1009.8 mb - 0.00 in0.0 mm 0.00 in0.0 mm
06:30 PM 59.2°F15.1°C 36.1°F2.3°C 42% 6.9 mph N11.1 kmh N 8.1 mph13.0 kmh 29.82 in1009.8 mb - 0.00 in0.0 mm 0.00 in0.0 mm
06:40 PM 58.8°F14.9°C 36.4°F2.4°C 43% 5.8 mph N9.3 kmh N 12.7 mph20.4 kmh 29.82 in1009.8 mb - 0.00 in0.0 mm 0.00 in0.0 mm
06:50 PM 58.7°F14.8°C 37.4°F3.0°C 45% 5.8 mph NW9.3 kmh NW 8.1 mph13.0 kmh 29.82 in1009.8 mb - 0.00 in0.0 mm 0.00 in0.0 mm
07:00 PM 58.3°F14.6°C 37.0°F2.8°C 45% 6.9 mph NW11.1 kmh NW 9.2 mph14.8 kmh 29.82 in1009.8 mb - 0.00 in0.0 mm 0.00 in0.0 mm
07:10 PM 57.9°F14.4°C 37.2°F2.9°C 46% 5.8 mph NW9.3 kmh NW 5.8 mph9.3 kmh 29.82 in1009.8 mb - 0.00 in0.0 mm 0.00 in0.0 mm
07:20 PM 57.4°F14.1°C 37.4°F3.0°C 47% 6.9 mph N11.1 kmh N 9.2 mph14.8 kmh 29.82 in1009.8 mb - 0.00 in0.0 mm 0.00 in0.0 mm
07:30 PM 56.8°F13.8°C 37.9°F3.3°C 49% 5.8 mph N9.3 kmh N 9.2 mph14.8 kmh 29.82 in1009.8 mb - 0.00 in0.0 mm 0.00 in0.0 mm
07:40 PM 56.3°F13.5°C 37.9°F3.3°C 50% 6.9 mph NW11.1 kmh NW 8.1 mph13.0 kmh 29.82 in1009.8 mb - 0.00 in0.0 mm 0.00 in0.0 mm
07:50 PM 55.8°F13.2°C 37.9°F3.3°C 51% 8.1 mph NW13.0 kmh NW 8.1 mph13.0 kmh 29.82 in1009.8 mb - 0.00 in0.0 mm 0.00 in0.0 mm
08:00 PM 55.3°F12.9°C 37.9°F3.3°C 52% 8.1 mph NNW13.0 kmh NNW 10.4 mph16.7 kmh 29.86 in1011.2 mb - 0.00 in0.0 mm 0.00 in0.0 mm
08:10 PM 54.8°F12.7°C 38.0°F3.3°C 53% 6.9 mph N11.1 kmh N 5.8 mph9.3 kmh 29.86 in1011.2 mb - 0.00 in0.0 mm 0.00 in0.0 mm
08:20 PM 54.3°F12.4°C 38.5°F3.6°C 55% 5.8 mph NW9.3 kmh NW 8.1 mph13.0 kmh 29.82 in1009.8 mb - 0.00 in0.0 mm 0.00 in0.0 mm
08:30 PM 54.0°F12.2°C 39.1°F3.9°C 57% 5.8 mph NNW9.3 kmh NNW 8.1 mph13.0 kmh 29.86 in1011.2 mb - 0.00 in0.0 mm 0.00 in0.0 mm
08:40 PM 53.5°F11.9°C 40.0°F4.4°C 60% 4.6 mph NW7.4 kmh NW 9.2 mph14.8 kmh 29.86 in1011.2 mb - 0.00 in0.0 mm 0.00 in0.0 mm
08:50 PM 53.2°F11.8°C 41.0°F5.0°C 63% 2.3 mph NW3.7 kmh NW 5.8 mph9.3 kmh 29.86 in1011.2 mb - 0.00 in0.0 mm 0.00 in0.0 mm
09:00 PM 53.1°F11.7°C 41.6°F5.3°C 65% 2.3 mph NW3.7 kmh NW 3.5 mph5.6 kmh 29.86 in1011.2 mb - 0.00 in0.0 mm 0.00 in0.0 mm
09:10 PM 52.7°F11.5°C 41.6°F5.3°C 66% 3.5 mph NW5.6 kmh NW 4.6 mph7.4 kmh 29.86 in1011.2 mb - 0.00 in0.0 mm 0.00 in0.0 mm
09:20 PM 52.2°F11.2°C 41.5°F5.3°C 67% 2.3 mph WSW3.7 kmh WSW 3.5 mph5.6 kmh 29.88 in1011.9 mb - 0.00 in0.0 mm 0.00 in0.0 mm
09:30 PM 51.8°F11.0°C 41.6°F5.3°C 68% 2.3 mph WSW3.7 kmh WSW 4.6 mph7.4 kmh 29.88 in1011.9 mb - 0.00 in0.0 mm 0.00 in0.0 mm
09:40 PM 51.7°F10.9°C 41.5°F5.3°C 68% 3.5 mph NW5.6 kmh NW 5.8 mph9.3 kmh 29.88 in1011.9 mb - 0.00 in0.0 mm 0.00 in0.0 mm
09:50 PM 51.6°F10.9°C 41.8°F5.4°C 69% 3.5 mph NW5.6 kmh NW 5.8 mph9.3 kmh 29.88 in1011.9 mb - 0.00 in0.0 mm 0.00 in0.0 mm
10:00 PM 51.8°F11.0°C 41.9°F5.5°C 69% 3.5 mph NW5.6 kmh NW 5.8 mph9.3 kmh 29.88 in1011.9 mb - 0.00 in0.0 mm 0.00 in0.0 mm
10:10 PM 51.8°F11.0°C 41.9°F5.5°C 69% 4.6 mph NNW7.4 kmh NNW 9.2 mph14.8 kmh 29.88 in1011.9 mb - 0.00 in0.0 mm 0.00 in0.0 mm
10:20 PM 51.8°F11.0°C 42.3°F5.7°C 70% 6.9 mph NNW11.1 kmh NNW 10.4 mph16.7 kmh 29.88 in1011.9 mb - 0.00 in0.0 mm 0.00 in0.0 mm
10:30 PM 51.8°F11.0°C 42.7°F5.9°C 71% 8.1 mph NW13.0 kmh NW 10.4 mph16.7 kmh 29.88 in1011.9 mb - 0.00 in0.0 mm 0.00 in0.0 mm
10:40 PM 51.8°F11.0°C 42.7°F5.9°C 71% 6.9 mph NW11.1 kmh NW 8.1 mph13.0 kmh 29.88 in1011.9 mb - 0.00 in0.0 mm 0.00 in0.0 mm
10:50 PM 51.6°F10.9°C 42.9°F6.1°C 72% 6.9 mph NNW11.1 kmh NNW 9.2 mph14.8 kmh 29.88 in1011.9 mb - 0.00 in0.0 mm 0.00 in0.0 mm
11:00 PM 51.3°F10.7°C 42.9°F6.1°C 73% 4.6 mph NNW7.4 kmh NNW 8.1 mph13.0 kmh 29.88 in1011.9 mb - 0.00 in0.0 mm 0.00 in0.0 mm
11:10 PM 50.9°F10.5°C 42.6°F5.9°C 73% 4.6 mph NW7.4 kmh NW 5.8 mph9.3 kmh 29.88 in1011.9 mb - 0.00 in0.0 mm 0.00 in0.0 mm
11:20 PM 50.6°F10.3°C 42.6°F5.9°C 74% 5.8 mph NNW9.3 kmh NNW 5.8 mph9.3 kmh 29.88 in1011.9 mb - 0.00 in0.0 mm 0.00 in0.0 mm
11:30 PM 50.4°F10.2°C 42.4°F5.8°C 74% 3.5 mph NNW5.6 kmh NNW 5.8 mph9.3 kmh 29.88 in1011.9 mb - 0.00 in0.0 mm 0.00 in0.0 mm
11:40 PM 50.4°F10.2°C 42.7°F5.9°C 75% 3.5 mph NW5.6 kmh NW 5.8 mph9.3 kmh 29.88 in1011.9 mb - 0.00 in0.0 mm 0.00 in0.0 mm
11:50 PM 50.2°F10.1°C 42.6°F5.9°C 75% 3.5 mph N5.6 kmh N 5.8 mph9.3 kmh 29.88 in1011.9 mb - 0.00 in0.0 mm 0.00 in0.0 mm